createdAt,value
2018-08-09T00:00:26.214Z,16.20
2018-08-09T00:03:08.133Z,16.20
2018-08-09T00:05:53.095Z,16.20
2018-08-09T00:08:31.612Z,16.20
2018-08-09T00:11:01.374Z,16.20
2018-08-09T00:13:37.514Z,16.10
2018-08-09T00:16:07.607Z,16.10
2018-08-09T00:18:42.533Z,16.10
2018-08-09T00:21:11.729Z,16.10
2018-08-09T00:23:46.780Z,16.00
2018-08-09T00:26:16.223Z,16.00
2018-08-09T00:28:46.442Z,16.10
2018-08-09T00:31:16.103Z,16.10
2018-08-09T00:33:50.097Z,16.00
2018-08-09T00:36:25.182Z,16.00
2018-08-09T00:38:57.570Z,16.00
2018-08-09T00:41:32.257Z,16.00
2018-08-09T00:44:01.351Z,16.00
2018-08-09T00:46:30.738Z,16.00
2018-08-09T00:49:05.653Z,16.00
2018-08-09T00:51:34.933Z,16.00
2018-08-09T00:54:16.286Z,15.90
2018-08-09T00:56:54.274Z,15.90
2018-08-09T00:59:25.545Z,15.90
2018-08-09T01:01:54.453Z,15.90
2018-08-09T01:04:29.909Z,15.90
2018-08-09T01:07:02.678Z,15.90
2018-08-09T01:09:31.872Z,15.90
2018-08-09T01:12:00.979Z,15.90
2018-08-09T01:14:38.960Z,15.90
2018-08-09T01:17:08.929Z,15.80
2018-08-09T01:19:38.145Z,15.90
2018-08-09T01:22:08.613Z,15.80
2018-08-09T01:24:42.852Z,15.90
2018-08-09T01:27:11.967Z,15.80
2018-08-09T01:29:43.901Z,15.80
2018-08-09T01:32:18.113Z,15.80
2018-08-09T01:34:48.226Z,15.80
2018-08-09T01:37:19.921Z,15.70
2018-08-09T01:39:48.568Z,15.70
2018-08-09T01:42:32.227Z,15.70
2018-08-09T01:45:06.298Z,15.70
2018-08-09T01:47:53.770Z,15.70
2018-08-09T01:50:25.226Z,15.60
2018-08-09T01:52:59.341Z,15.60
2018-08-09T01:55:28.480Z,15.60
2018-08-09T01:58:02.550Z,15.60
2018-08-09T02:00:31.598Z,15.60
2018-08-09T02:03:05.740Z,15.60
2018-08-09T02:05:40.224Z,15.60
2018-08-09T02:08:14.673Z,15.60
2018-08-09T02:10:43.761Z,15.60
2018-08-09T02:13:12.622Z,15.60
2018-08-09T02:15:44.344Z,15.60
2018-08-09T02:18:18.468Z,15.60
2018-08-09T02:20:48.607Z,15.60
2018-08-09T02:23:20.409Z,15.60
2018-08-09T02:25:52.078Z,15.60
2018-08-09T02:28:20.990Z,15.60
2018-08-09T02:30:50.404Z,15.60
2018-08-09T02:33:24.504Z,15.60
2018-08-09T02:36:03.055Z,15.60
2018-08-09T02:38:33.406Z,15.60
2018-08-09T02:41:05.118Z,15.60
2018-08-09T02:43:33.832Z,15.60
2018-08-09T02:46:02.478Z,15.60
2018-08-09T02:48:32.214Z,15.60
2018-08-09T02:51:00.968Z,15.60
2018-08-09T02:53:42.561Z,15.60
2018-08-09T02:56:11.305Z,15.60
2018-08-09T02:58:39.917Z,15.60
2018-08-09T03:01:08.662Z,15.60
2018-08-09T03:03:40.379Z,15.50
2018-08-09T03:06:09.920Z,15.50
2018-08-09T03:08:44.050Z,15.50
2018-08-09T03:11:13.036Z,15.50
2018-08-09T03:13:42.813Z,15.50
2018-08-09T03:16:14.521Z,15.50
2018-08-09T03:18:48.616Z,15.50
2018-08-09T03:21:19.944Z,15.50
2018-08-09T03:23:48.763Z,15.50
2018-08-09T03:26:18.496Z,15.50
2018-08-09T03:28:48.259Z,15.50
2018-08-09T03:31:17.065Z,15.50
2018-08-09T03:33:45.710Z,15.50
2018-08-09T03:36:14.334Z,15.50
2018-08-09T03:38:46.048Z,15.40
2018-08-09T03:41:17.758Z,15.40
2018-08-09T03:43:46.620Z,15.40
2018-08-09T03:46:25.088Z,15.40
2018-08-09T03:48:56.337Z,15.40
2018-08-09T03:51:40.547Z,15.40
2018-08-09T03:54:21.577Z,15.40
2018-08-09T03:57:06.242Z,15.40
2018-08-09T03:59:35.067Z,15.40
2018-08-09T04:02:04.304Z,15.40
2018-08-09T04:04:36.174Z,15.40
2018-08-09T04:07:12.408Z,15.30
2018-08-09T04:09:41.455Z,15.30
2018-08-09T04:12:10.161Z,15.30
2018-08-09T04:14:38.821Z,15.30
2018-08-09T04:17:18.711Z,15.30
2018-08-09T04:19:47.642Z,15.30
2018-08-09T04:22:23.186Z,15.30
2018-08-09T04:25:03.440Z,15.30
2018-08-09T04:27:35.044Z,15.20
2018-08-09T04:30:04.502Z,15.20
2018-08-09T04:32:35.705Z,15.20
2018-08-09T04:35:04.484Z,15.20
2018-08-09T04:37:33.287Z,15.20
2018-08-09T04:40:21.120Z,15.20
2018-08-09T04:43:01.416Z,15.20
2018-08-09T04:45:32.912Z,15.30
2018-08-09T04:48:07.137Z,15.30
2018-08-09T04:50:36.369Z,15.30
2018-08-09T04:53:05.974Z,15.30
2018-08-09T04:55:37.735Z,15.30
2018-08-09T04:58:06.914Z,15.40
2018-08-09T05:00:41.574Z,15.40
2018-08-09T05:03:10.794Z,15.40
2018-08-09T05:05:39.292Z,15.50
2018-08-09T05:08:09.378Z,15.50
2018-08-09T05:10:45.049Z,15.60
2018-08-09T05:13:17.784Z,15.60
2018-08-09T05:15:46.936Z,15.70
2018-08-09T05:18:16.583Z,15.80
2018-08-09T05:20:45.166Z,15.90
2018-08-09T05:23:13.934Z,16.00
2018-08-09T05:25:45.471Z,16.10
2018-08-09T05:28:17.237Z,16.20
2018-08-09T05:30:51.361Z,16.30
2018-08-09T05:33:20.413Z,16.30
2018-08-09T05:35:52.250Z,16.50
2018-08-09T05:38:26.380Z,16.60
2018-08-09T05:41:00.984Z,16.70
2018-08-09T05:43:35.535Z,16.80
2018-08-09T05:46:15.581Z,16.90
2018-08-09T05:48:50.668Z,17.00
2018-08-09T05:51:19.813Z,17.10
2018-08-09T05:53:53.853Z,17.20
2018-08-09T05:56:25.294Z,17.30
2018-08-09T06:00:26.067Z,17.40
2018-08-09T06:02:55.323Z,17.60
2018-08-09T06:05:24.113Z,17.70
2018-08-09T06:07:53.534Z,17.80
2018-08-09T06:10:22.224Z,17.90
2018-08-09T06:15:36.343Z,18.20
2018-08-09T06:18:05.093Z,18.30
2018-08-09T06:20:34.764Z,18.40
2018-08-09T06:23:03.605Z,18.50
2018-08-09T06:25:32.189Z,18.70
2018-08-09T06:30:57.305Z,19.10
2018-08-09T06:33:26.240Z,19.40
2018-08-09T06:35:54.910Z,19.50
2018-08-09T06:38:23.508Z,19.60
2018-08-09T06:40:51.982Z,19.70
2018-08-09T06:43:21.831Z,19.90
2018-08-09T06:45:50.405Z,20.00
2018-08-09T06:48:18.896Z,20.10
2018-08-09T06:50:47.556Z,20.20
2018-08-09T06:53:19.301Z,20.30
2018-08-09T06:55:47.884Z,20.40
2018-08-09T06:58:21.861Z,20.40
2018-08-09T07:00:51.058Z,20.50
2018-08-09T07:03:26.124Z,20.60
2018-08-09T07:05:55.182Z,20.70
2018-08-09T07:08:36.142Z,20.70
2018-08-09T07:11:09.942Z,20.80
2018-08-09T07:13:38.883Z,20.90
2018-08-09T07:16:13.561Z,20.90
2018-08-09T07:18:42.172Z,21.00
2018-08-09T07:21:13.844Z,21.10
2018-08-09T07:23:42.459Z,21.00
2018-08-09T07:26:12.497Z,21.10
2018-08-09T07:28:41.734Z,21.10
2018-08-09T07:31:10.659Z,21.10
2018-08-09T07:33:39.431Z,21.20
2018-08-09T07:36:08.075Z,21.20
2018-08-09T07:38:36.661Z,21.40
2018-08-09T07:41:05.287Z,21.40
2018-08-09T07:43:33.882Z,21.50
2018-08-09T07:46:03.481Z,21.50
2018-08-09T07:48:32.235Z,21.60
2018-08-09T07:51:00.893Z,21.60
2018-08-09T07:53:29.547Z,21.70
2018-08-09T07:55:58.185Z,21.80
2018-08-09T07:58:27.223Z,21.80
2018-08-09T08:00:56.518Z,21.90
2018-08-09T08:03:25.171Z,22.10
2018-08-09T08:05:53.951Z,22.20
2018-08-09T08:08:28.077Z,22.40
2018-08-09T08:10:57.125Z,22.40
2018-08-09T08:13:26.871Z,22.50
2018-08-09T08:15:55.405Z,22.60
2018-08-09T08:18:25.155Z,22.70
2018-08-09T08:20:53.703Z,22.80
2018-08-09T08:23:22.427Z,22.90
2018-08-09T08:25:52.264Z,22.90
2018-08-09T08:28:20.971Z,23.10
2018-08-09T08:30:49.466Z,23.20
2018-08-09T08:33:18.172Z,23.40
2018-08-09T08:35:47.378Z,23.50
2018-08-09T08:38:16.613Z,23.70
2018-08-09T08:40:45.355Z,23.70
2018-08-09T08:43:13.919Z,23.80
2018-08-09T08:45:42.627Z,23.90
2018-08-09T08:48:11.282Z,24.00
2018-08-09T08:50:40.394Z,24.20
2018-08-09T08:53:09.695Z,24.40
2018-08-09T08:55:38.371Z,24.70
2018-08-09T08:58:06.968Z,24.90
2018-08-09T09:00:36.348Z,25.00
2018-08-09T09:03:05.414Z,25.30
2018-08-09T09:05:33.654Z,25.50
2018-08-09T09:08:03.252Z,25.80
2018-08-09T09:10:31.821Z,26.00
2018-08-09T09:13:01.286Z,26.00
2018-08-09T09:15:30.199Z,26.10
2018-08-09T09:17:58.822Z,26.10
2018-08-09T09:20:27.451Z,26.30
2018-08-09T09:22:56.738Z,26.50
2018-08-09T09:25:26.785Z,26.40
2018-08-09T09:27:58.494Z,26.50
2018-08-09T09:30:30.140Z,26.60
2018-08-09T09:32:59.281Z,26.70
2018-08-09T09:35:27.771Z,26.90
2018-08-09T09:37:56.440Z,26.90
2018-08-09T09:40:25.029Z,27.00
2018-08-09T09:42:53.777Z,27.10
2018-08-09T09:45:25.320Z,27.10
2018-08-09T09:47:53.929Z,27.20
2018-08-09T09:50:23.613Z,27.10
2018-08-09T09:52:52.296Z,27.20
2018-08-09T09:55:20.943Z,27.20
2018-08-09T09:57:49.509Z,27.50
2018-08-09T10:00:23.577Z,27.60
2018-08-09T10:02:53.089Z,27.70
2018-08-09T10:05:21.909Z,27.90
2018-08-09T10:07:51.318Z,28.10
2018-08-09T10:10:21.114Z,28.20
2018-08-09T10:12:50.767Z,28.30
2018-08-09T10:15:20.466Z,28.30
2018-08-09T10:17:49.150Z,28.30
2018-08-09T10:20:21.355Z,28.20
2018-08-09T10:22:49.793Z,28.10
2018-08-09T10:25:19.139Z,28.10
2018-08-09T10:27:48.338Z,28.00
2018-08-09T10:30:18.874Z,27.80
2018-08-09T10:32:47.907Z,27.60
2018-08-09T10:35:18.642Z,27.50
2018-08-09T10:37:48.322Z,27.30
2018-08-09T10:40:20.034Z,27.10
2018-08-09T10:42:49.758Z,26.90
2018-08-09T10:45:20.673Z,26.80
2018-08-09T10:47:49.957Z,26.60
2018-08-09T10:50:21.895Z,26.40
2018-08-09T10:52:50.536Z,26.50
2018-08-09T10:55:20.146Z,26.40
2018-08-09T10:57:54.352Z,26.30
2018-08-09T11:00:25.747Z,26.10
2018-08-09T11:02:57.582Z,26.00
2018-08-09T11:05:31.831Z,26.00
2018-08-09T11:08:08.425Z,25.90
2018-08-09T11:10:38.527Z,25.80
2018-08-09T11:13:07.235Z,25.70
2018-08-09T11:15:40.956Z,25.70
2018-08-09T11:18:10.112Z,25.80
2018-08-09T11:20:40.728Z,25.70
2018-08-09T11:23:09.860Z,25.60
2018-08-09T11:25:38.698Z,25.60
2018-08-09T11:28:10.351Z,25.60
2018-08-09T11:30:39.241Z,25.60
2018-08-09T11:33:08.778Z,25.40
2018-08-09T11:35:40.529Z,25.40
2018-08-09T11:38:10.593Z,25.30
2018-08-09T11:40:42.994Z,25.30
2018-08-09T11:43:11.581Z,25.30
2018-08-09T11:45:43.192Z,25.20
2018-08-09T11:48:12.759Z,25.20
2018-08-09T11:52:08.946Z,25.10
2018-08-09T11:54:37.362Z,24.90
2018-08-09T11:57:06.103Z,24.90
2018-08-09T11:59:35.754Z,24.90
2018-08-09T12:02:07.406Z,24.90
2018-08-09T12:04:36.235Z,25.10
2018-08-09T12:07:10.662Z,25.10
2018-08-09T12:09:43.604Z,25.10
2018-08-09T12:12:15.837Z,25.00
2018-08-09T12:14:47.369Z,25.00
2018-08-09T12:17:19.107Z,24.90
2018-08-09T12:19:47.890Z,24.90
2018-08-09T12:22:28.498Z,24.70
2018-08-09T12:25:09.923Z,24.70
2018-08-09T12:27:44.326Z,24.60
2018-08-09T12:30:18.834Z,24.50
2018-08-09T12:32:48.043Z,24.50
2018-08-09T12:35:20.239Z,24.40
2018-08-09T12:37:51.565Z,24.30
2018-08-09T12:40:30.081Z,24.30
2018-08-09T12:43:01.916Z,24.20
2018-08-09T12:45:30.775Z,24.20
2018-08-09T12:48:04.976Z,24.10
2018-08-09T12:50:34.418Z,24.00
2018-08-09T12:53:06.054Z,23.90
2018-08-09T12:55:34.820Z,23.80
2018-08-09T12:58:07.696Z,23.80
2018-08-09T13:00:36.453Z,23.80
2018-08-09T13:03:04.934Z,23.70
2018-08-09T13:05:33.598Z,23.60
2018-08-09T13:08:03.325Z,23.60
2018-08-09T13:10:33.759Z,23.60
2018-08-09T13:13:02.628Z,23.50
2018-08-09T13:15:31.315Z,23.50
2018-08-09T13:18:03.036Z,23.50
2018-08-09T13:20:34.027Z,23.40
2018-08-09T13:23:02.822Z,23.40
2018-08-09T13:25:32.228Z,23.40
2018-08-09T13:28:01.265Z,23.40
2018-08-09T13:30:35.367Z,23.40
2018-08-09T13:33:03.650Z,23.30
2018-08-09T13:35:33.516Z,23.30
2018-08-09T13:38:02.091Z,23.40
2018-08-09T13:40:31.858Z,23.30
2018-08-09T13:43:00.662Z,23.30
2018-08-09T13:45:39.025Z,23.20
2018-08-09T13:51:02.839Z,23.10
2018-08-09T13:53:34.609Z,23.10
2018-08-09T13:56:04.316Z,23.10
2018-08-09T13:58:38.421Z,23.10
2018-08-09T14:01:07.726Z,23.00
2018-08-09T14:03:37.710Z,22.90
2018-08-09T14:06:07.480Z,22.80
2018-08-09T14:08:36.766Z,22.60
2018-08-09T14:11:08.620Z,22.50
2018-08-09T14:13:40.322Z,22.40
2018-08-09T14:16:10.439Z,22.40
2018-08-09T14:18:38.966Z,22.20
2018-08-09T14:21:07.469Z,22.10
2018-08-09T14:23:36.199Z,22.00
2018-08-09T14:26:04.804Z,21.90
2018-08-09T14:28:33.587Z,21.80
2018-08-09T14:31:03.211Z,21.80
2018-08-09T14:33:32.928Z,21.70
2018-08-09T14:36:04.601Z,21.70
2018-08-09T14:38:38.756Z,21.60
2018-08-09T14:41:07.969Z,21.50
2018-08-09T14:43:39.733Z,21.40
2018-08-09T14:49:06.283Z,21.30
2018-08-09T14:51:43.017Z,21.30
2018-08-09T14:54:18.648Z,21.20
2018-08-09T14:56:47.018Z,21.10
2018-08-09T14:59:15.468Z,21.00
2018-08-09T15:01:44.044Z,20.90
2018-08-09T15:04:18.188Z,20.90
2018-08-09T15:06:47.384Z,20.80
2018-08-09T15:09:15.995Z,20.70
2018-08-09T15:11:59.423Z,20.70
2018-08-09T15:14:37.621Z,20.60
2018-08-09T15:17:06.862Z,20.60
2018-08-09T15:19:38.596Z,20.60
2018-08-09T15:22:09.455Z,20.60
2018-08-09T15:24:38.040Z,20.60
2018-08-09T15:27:07.049Z,20.60
2018-08-09T15:29:35.387Z,20.60
2018-08-09T15:32:03.930Z,20.60
2018-08-09T15:34:38.202Z,20.60
2018-08-09T15:37:07.249Z,20.60
2018-08-09T15:39:41.268Z,20.50
2018-08-09T15:42:15.910Z,20.50
2018-08-09T15:44:48.070Z,20.50
2018-08-09T15:47:19.700Z,20.40
2018-08-09T15:49:51.277Z,20.40
2018-08-09T15:52:25.527Z,20.30
2018-08-09T15:54:54.380Z,20.30
2018-08-09T15:57:23.161Z,20.30
2018-08-09T15:59:52.014Z,20.30
2018-08-09T16:02:27.166Z,20.30
2018-08-09T16:05:05.971Z,20.30
2018-08-09T16:07:36.051Z,20.30
2018-08-09T16:10:10.308Z,20.30
2018-08-09T16:12:45.077Z,20.30
2018-08-09T16:15:15.745Z,20.20
2018-08-09T16:17:47.054Z,20.20
2018-08-09T16:20:15.692Z,20.20
2018-08-09T16:22:45.530Z,20.30
2018-08-09T16:25:16.206Z,20.30
2018-08-09T16:27:44.939Z,20.30
2018-08-09T16:30:15.999Z,20.30
2018-08-09T16:32:44.506Z,20.30
2018-08-09T16:35:13.595Z,20.30
2018-08-09T16:37:43.428Z,20.20
2018-08-09T16:40:16.222Z,20.20
2018-08-09T16:42:46.297Z,20.20
2018-08-09T16:45:16.329Z,20.20
2018-08-09T16:47:45.181Z,20.10
2018-08-09T16:50:16.889Z,20.10
2018-08-09T16:52:47.597Z,20.10
2018-08-09T16:55:17.962Z,20.00
2018-08-09T16:57:48.140Z,20.00
2018-08-09T17:00:18.423Z,19.90
2018-08-09T17:02:47.773Z,19.90
2018-08-09T17:05:19.798Z,19.90
2018-08-09T17:07:50.040Z,19.80
2018-08-09T17:10:20.115Z,19.80
2018-08-09T17:12:49.757Z,19.90
2018-08-09T17:15:27.940Z,19.90
2018-08-09T17:17:57.679Z,19.90
2018-08-09T17:20:28.748Z,19.90
2018-08-09T17:23:01.689Z,19.90
2018-08-09T17:25:30.378Z,19.90
2018-08-09T17:27:59.952Z,19.90
2018-08-09T17:30:29.127Z,19.90
2018-08-09T17:32:58.430Z,19.90
2018-08-09T17:35:28.293Z,19.90
2018-08-09T17:37:57.302Z,19.90
2018-08-09T17:40:28.761Z,19.90
2018-08-09T17:42:58.559Z,19.90
2018-08-09T17:45:29.848Z,19.90
2018-08-09T17:47:58.431Z,19.90
2018-08-09T17:50:29.925Z,19.90
2018-08-09T17:53:05.701Z,19.90
2018-08-09T17:55:39.719Z,20.00
2018-08-09T17:58:08.888Z,19.90
2018-08-09T18:00:38.882Z,20.00
2018-08-09T18:03:08.453Z,20.00
2018-08-09T18:05:38.005Z,20.00
2018-08-09T18:08:07.593Z,20.00
2018-08-09T18:10:37.676Z,20.00
2018-08-09T18:13:06.126Z,20.00
2018-08-09T18:15:35.966Z,20.00
2018-08-09T18:18:04.386Z,20.00
2018-08-09T18:20:34.870Z,20.10
2018-08-09T18:23:04.105Z,20.10
2018-08-09T18:25:32.641Z,20.10
2018-08-09T18:28:01.240Z,20.10
2018-08-09T18:30:32.993Z,20.10
2018-08-09T18:33:04.722Z,20.10
2018-08-09T18:35:33.175Z,20.20
2018-08-09T18:38:01.892Z,20.20
2018-08-09T18:40:30.718Z,20.20
2018-08-09T18:42:59.890Z,20.10
2018-08-09T18:45:28.957Z,20.20
2018-08-09T18:47:57.492Z,20.20
2018-08-09T18:50:28.604Z,20.20
2018-08-09T18:52:59.198Z,20.20
2018-08-09T18:55:27.684Z,20.20
2018-08-09T18:57:56.572Z,20.20
2018-08-09T19:00:27.345Z,20.20
2018-08-09T19:02:56.080Z,20.20
2018-08-09T19:05:25.391Z,20.30
2018-08-09T19:07:54.826Z,20.20
2018-08-09T19:10:26.814Z,20.20
2018-08-09T19:12:56.979Z,20.30
2018-08-09T19:15:26.035Z,20.30
2018-08-09T19:17:55.130Z,20.30
2018-08-09T19:20:30.852Z,20.30
2018-08-09T19:22:59.509Z,20.30
2018-08-09T19:26:52.741Z,20.30
2018-08-09T19:29:21.788Z,20.30
2018-08-09T19:31:51.793Z,20.10
2018-08-09T19:34:23.049Z,19.70
2018-08-09T19:36:59.259Z,19.10
2018-08-09T19:39:28.667Z,18.60
2018-08-09T19:41:58.414Z,18.30
2018-08-09T19:44:27.062Z,18.00
2018-08-09T19:46:56.062Z,17.80
2018-08-09T19:49:25.812Z,17.60
2018-08-09T19:51:55.132Z,17.50
2018-08-09T19:54:30.497Z,17.50
2018-08-09T19:56:59.494Z,17.40
2018-08-09T19:59:29.176Z,17.40
2018-08-09T20:01:58.046Z,17.30
2018-08-09T20:04:26.795Z,17.30
2018-08-09T20:06:55.665Z,17.30
2018-08-09T20:09:25.524Z,17.20
2018-08-09T20:11:55.424Z,17.20
2018-08-09T20:14:23.805Z,17.10
2018-08-09T20:16:52.491Z,17.10
2018-08-09T20:19:21.084Z,17.10
2018-08-09T20:21:50.523Z,17.10
2018-08-09T20:24:19.546Z,17.10
2018-08-09T20:26:48.488Z,17.00
2018-08-09T20:29:18.156Z,17.00
2018-08-09T20:31:49.935Z,17.00
2018-08-09T20:34:18.670Z,17.00
2018-08-09T20:36:47.529Z,17.00
2018-08-09T20:39:16.007Z,17.00
2018-08-09T20:41:45.579Z,17.00
2018-08-09T20:44:15.775Z,17.00
2018-08-09T20:46:45.117Z,17.00
2018-08-09T20:49:13.809Z,17.00
2018-08-09T20:51:42.705Z,17.00
2018-08-09T20:54:11.332Z,17.10
2018-08-09T20:56:41.145Z,17.10
2018-08-09T20:59:09.810Z,17.10
2018-08-09T21:01:38.560Z,17.10
2018-08-09T21:04:08.773Z,17.10
2018-08-09T21:06:38.858Z,17.10
2018-08-09T21:09:10.572Z,17.10
2018-08-09T21:11:39.448Z,17.10
2018-08-09T21:14:08.063Z,17.10
2018-08-09T21:16:36.822Z,17.10
2018-08-09T21:19:05.548Z,17.10
2018-08-09T21:21:35.116Z,17.10
2018-08-09T21:24:03.804Z,17.20
2018-08-09T21:26:34.108Z,17.10
2018-08-09T21:29:03.097Z,17.10
2018-08-09T21:31:32.808Z,17.10
2018-08-09T21:34:02.421Z,17.10
2018-08-09T21:36:32.201Z,17.10
2018-08-09T21:39:02.154Z,17.00
2018-08-09T21:41:30.938Z,17.00
2018-08-09T21:43:59.588Z,17.00
2018-08-09T21:46:28.597Z,17.00
2018-08-09T21:48:56.984Z,17.00
2018-08-09T21:51:25.505Z,17.00
2018-08-09T21:53:54.190Z,17.00
2018-08-09T21:56:28.604Z,17.00
2018-08-09T21:58:57.593Z,17.00
2018-08-09T22:01:26.253Z,16.90
2018-08-09T22:03:55.881Z,16.90
2018-08-09T22:06:31.329Z,16.80
2018-08-09T22:09:14.152Z,16.80
2018-08-09T22:11:48.258Z,16.70
2018-08-09T22:14:22.808Z,16.70
2018-08-09T22:17:13.086Z,16.70
2018-08-09T22:19:49.979Z,16.60
2018-08-09T22:22:31.201Z,16.60
2018-08-09T22:25:06.553Z,16.60
2018-08-09T22:27:35.728Z,16.60
2018-08-09T22:30:06.266Z,16.50
2018-08-09T22:32:36.013Z,16.50
2018-08-09T22:35:05.449Z,16.50
2018-08-09T22:37:33.809Z,16.50
2018-08-09T22:40:08.081Z,16.40
2018-08-09T22:42:37.105Z,16.40
2018-08-09T22:45:18.951Z,16.40
2018-08-09T22:47:53.437Z,16.30
2018-08-09T22:50:25.083Z,16.30
2018-08-09T22:53:01.432Z,16.30
2018-08-09T22:55:31.165Z,16.30
2018-08-09T22:58:00.273Z,16.30
2018-08-09T23:00:29.252Z,16.30
2018-08-09T23:02:57.702Z,16.30
2018-08-09T23:05:27.442Z,16.30
2018-08-09T23:07:57.648Z,16.20
2018-08-09T23:10:26.754Z,16.20
2018-08-09T23:12:55.729Z,16.20
2018-08-09T23:15:27.918Z,16.20
2018-08-09T23:17:57.220Z,16.20
2018-08-09T23:20:31.241Z,16.20
2018-08-09T23:23:02.597Z,16.20
2018-08-09T23:25:32.166Z,16.20
2018-08-09T23:28:07.831Z,16.10
2018-08-09T23:30:37.527Z,16.10
2018-08-09T23:33:09.385Z,16.10
2018-08-09T23:35:38.188Z,16.00
2018-08-09T23:38:12.255Z,16.00
2018-08-09T23:40:41.400Z,16.00
2018-08-09T23:43:10.910Z,16.00
2018-08-09T23:45:41.745Z,16.00
2018-08-09T23:48:12.572Z,15.90
2018-08-09T23:50:40.955Z,15.90
2018-08-09T23:53:10.717Z,15.80
2018-08-09T23:55:40.272Z,15.80
2018-08-09T23:58:09.078Z,15.80
